sensor_id;sensor_type;location;lat;lon;timestamp;P1;durP1;ratioP1;P2;durP2;ratioP2
70725;SDS011;58304;53.104;6.022;2022-10-01T00:01:05;8.43;;;5.75;;
70725;SDS011;58304;53.104;6.022;2022-10-01T00:03:32;9.40;;;5.57;;
70725;SDS011;58304;53.104;6.022;2022-10-01T00:06:00;8.40;;;6.13;;
70725;SDS011;58304;53.104;6.022;2022-10-01T00:08:28;9.35;;;5.68;;
70725;SDS011;58304;53.104;6.022;2022-10-01T00:10:55;9.32;;;5.80;;
70725;SDS011;58304;53.104;6.022;2022-10-01T00:13:20;8.45;;;5.80;;
70725;SDS011;58304;53.104;6.022;2022-10-01T00:15:46;9.73;;;6.05;;
70725;SDS011;58304;53.104;6.022;2022-10-01T00:18:12;9.65;;;5.85;;
70725;SDS011;58304;53.104;6.022;2022-10-01T00:20:38;8.70;;;6.03;;
70725;SDS011;58304;53.104;6.022;2022-10-01T00:23:11;10.25;;;6.75;;
70725;SDS011;58304;53.104;6.022;2022-10-01T00:25:39;8.55;;;6.45;;
70725;SDS011;58304;53.104;6.022;2022-10-01T00:28:05;11.15;;;6.88;;
70725;SDS011;58304;53.104;6.022;2022-10-01T00:30:30;9.80;;;6.50;;
70725;SDS011;58304;53.104;6.022;2022-10-01T00:32:56;9.93;;;6.45;;
70725;SDS011;58304;53.104;6.022;2022-10-01T00:35:22;9.50;;;6.22;;
70725;SDS011;58304;53.104;6.022;2022-10-01T00:40:15;10.90;;;6.25;;
70725;SDS011;58304;53.104;6.022;2022-10-01T00:42:42;12.50;;;6.00;;
70725;SDS011;58304;53.104;6.022;2022-10-01T00:45:09;12.02;;;6.20;;
70725;SDS011;58304;53.104;6.022;2022-10-01T00:47:37;9.48;;;6.18;;
70725;SDS011;58304;53.104;6.022;2022-10-01T00:50:21;10.40;;;6.60;;
70725;SDS011;58304;53.104;6.022;2022-10-01T00:53:04;8.85;;;5.85;;
70725;SDS011;58304;53.104;6.022;2022-10-01T00:55:40;8.88;;;6.07;;
70725;SDS011;58304;53.104;6.022;2022-10-01T00:58:11;11.30;;;6.40;;
70725;SDS011;58304;53.104;6.022;2022-10-01T01:00:37;9.27;;;5.60;;
70725;SDS011;58304;53.104;6.022;2022-10-01T01:03:04;9.00;;;5.97;;
70725;SDS011;58304;53.104;6.022;2022-10-01T01:05:30;9.10;;;5.85;;
70725;SDS011;58304;53.104;6.022;2022-10-01T01:07:56;8.85;;;6.22;;
70725;SDS011;58304;53.104;6.022;2022-10-01T01:10:29;9.15;;;5.40;;
70725;SDS011;58304;53.104;6.022;2022-10-01T01:13:28;8.60;;;5.75;;
70725;SDS011;58304;53.104;6.022;2022-10-01T01:16:57;8.13;;;5.55;;
70725;SDS011;58304;53.104;6.022;2022-10-01T01:19:19;7.82;;;5.68;;
70725;SDS011;58304;53.104;6.022;2022-10-01T01:21:50;9.02;;;5.70;;
70725;SDS011;58304;53.104;6.022;2022-10-01T01:27:04;7.97;;;5.25;;
70725;SDS011;58304;53.104;6.022;2022-10-01T01:29:42;8.90;;;5.65;;
70725;SDS011;58304;53.104;6.022;2022-10-01T01:32:19;9.20;;;5.25;;
70725;SDS011;58304;53.104;6.022;2022-10-01T01:34:56;7.53;;;5.03;;
70725;SDS011;58304;53.104;6.022;2022-10-01T01:37:26;6.68;;;4.82;;
70725;SDS011;58304;53.104;6.022;2022-10-01T01:39:56;8.80;;;4.65;;
70725;SDS011;58304;53.104;6.022;2022-10-01T01:42:29;8.27;;;4.82;;
70725;SDS011;58304;53.104;6.022;2022-10-01T01:45:00;8.30;;;4.80;;
70725;SDS011;58304;53.104;6.022;2022-10-01T01:47:29;6.47;;;4.78;;
70725;SDS011;58304;53.104;6.022;2022-10-01T01:49:56;7.28;;;4.70;;
70725;SDS011;58304;53.104;6.022;2022-10-01T01:52:26;6.95;;;4.10;;
70725;SDS011;58304;53.104;6.022;2022-10-01T01:54:52;6.15;;;4.40;;
70725;SDS011;58304;53.104;6.022;2022-10-01T01:57:20;7.88;;;4.13;;
70725;SDS011;58304;53.104;6.022;2022-10-01T01:59:46;6.55;;;4.00;;
70725;SDS011;58304;53.104;6.022;2022-10-01T02:02:30;5.90;;;3.83;;
70725;SDS011;58304;53.104;6.022;2022-10-01T02:05:00;6.80;;;4.32;;
70725;SDS011;58304;53.104;6.022;2022-10-01T02:10:15;6.40;;;4.05;;
70725;SDS011;58304;53.104;6.022;2022-10-01T02:21:28;5.40;;;3.72;;
70725;SDS011;58304;53.104;6.022;2022-10-01T02:26:46;5.38;;;3.47;;
70725;SDS011;58304;53.104;6.022;2022-10-01T02:29:15;5.72;;;3.60;;
70725;SDS011;58304;53.104;6.022;2022-10-01T02:31:43;5.65;;;3.22;;
70725;SDS011;58304;53.104;6.022;2022-10-01T02:34:11;5.28;;;3.30;;
70725;SDS011;58304;53.104;6.022;2022-10-01T02:36:40;4.90;;;3.13;;
70725;SDS011;58304;53.104;6.022;2022-10-01T02:39:09;4.53;;;3.10;;
70725;SDS011;58304;53.104;6.022;2022-10-01T02:41:37;4.53;;;3.30;;
70725;SDS011;58304;53.104;6.022;2022-10-01T02:44:06;4.35;;;3.17;;
70725;SDS011;58304;53.104;6.022;2022-10-01T02:46:59;6.68;;;3.45;;
70725;SDS011;58304;53.104;6.022;2022-10-01T02:49:31;6.00;;;3.30;;
70725;SDS011;58304;53.104;6.022;2022-10-01T02:54:43;4.22;;;3.05;;
70725;SDS011;58304;53.104;6.022;2022-10-01T02:57:11;4.72;;;3.00;;
70725;SDS011;58304;53.104;6.022;2022-10-01T02:59:56;4.43;;;2.70;;
70725;SDS011;58304;53.104;6.022;2022-10-01T03:02:24;5.22;;;2.80;;
70725;SDS011;58304;53.104;6.022;2022-10-01T03:04:53;5.20;;;2.80;;
70725;SDS011;58304;53.104;6.022;2022-10-01T03:07:21;4.57;;;3.00;;
70725;SDS011;58304;53.104;6.022;2022-10-01T03:09:47;4.00;;;2.42;;
70725;SDS011;58304;53.104;6.022;2022-10-01T03:12:13;3.65;;;2.45;;
70725;SDS011;58304;53.104;6.022;2022-10-01T03:14:41;5.13;;;2.55;;
70725;SDS011;58304;53.104;6.022;2022-10-01T03:17:08;3.30;;;1.95;;
70725;SDS011;58304;53.104;6.022;2022-10-01T03:19:33;4.32;;;2.30;;
70725;SDS011;58304;53.104;6.022;2022-10-01T03:24:25;6.05;;;2.10;;
70725;SDS011;58304;53.104;6.022;2022-10-01T03:29:16;4.20;;;1.95;;
70725;SDS011;58304;53.104;6.022;2022-10-01T03:31:41;3.00;;;1.60;;
70725;SDS011;58304;53.104;6.022;2022-10-01T03:34:07;3.30;;;1.80;;
70725;SDS011;58304;53.104;6.022;2022-10-01T03:36:33;3.20;;;1.85;;
70725;SDS011;58304;53.104;6.022;2022-10-01T03:38:58;3.13;;;1.80;;
70725;SDS011;58304;53.104;6.022;2022-10-01T03:43:49;2.95;;;1.90;;
70725;SDS011;58304;53.104;6.022;2022-10-01T03:46:15;3.75;;;1.77;;
70725;SDS011;58304;53.104;6.022;2022-10-01T03:48:41;3.50;;;1.80;;
70725;SDS011;58304;53.104;6.022;2022-10-01T03:51:07;2.55;;;1.80;;
70725;SDS011;58304;53.104;6.022;2022-10-01T03:53:33;3.63;;;1.98;;
70725;SDS011;58304;53.104;6.022;2022-10-01T03:55:58;3.45;;;1.88;;
70725;SDS011;58304;53.104;6.022;2022-10-01T03:58:25;3.60;;;2.05;;
70725;SDS011;58304;53.104;6.022;2022-10-01T04:00:51;3.38;;;2.10;;
70725;SDS011;58304;53.104;6.022;2022-10-01T04:03:19;3.30;;;2.17;;
70725;SDS011;58304;53.104;6.022;2022-10-01T04:05:44;2.97;;;2.00;;
70725;SDS011;58304;53.104;6.022;2022-10-01T04:08:10;3.55;;;2.40;;
70725;SDS011;58304;53.104;6.022;2022-10-01T04:10:37;3.42;;;2.20;;
70725;SDS011;58304;53.104;6.022;2022-10-01T04:13:03;5.45;;;2.08;;
70725;SDS011;58304;53.104;6.022;2022-10-01T04:15:30;2.92;;;2.10;;
70725;SDS011;58304;53.104;6.022;2022-10-01T04:17:57;7.18;;;2.17;;
70725;SDS011;58304;53.104;6.022;2022-10-01T04:20:22;4.15;;;2.45;;
70725;SDS011;58304;53.104;6.022;2022-10-01T04:22:48;3.88;;;2.28;;
70725;SDS011;58304;53.104;6.022;2022-10-01T04:25:14;3.63;;;2.10;;
70725;SDS011;58304;53.104;6.022;2022-10-01T04:27:41;5.07;;;2.35;;
70725;SDS011;58304;53.104;6.022;2022-10-01T04:30:19;3.15;;;2.28;;
70725;SDS011;58304;53.104;6.022;2022-10-01T04:32:45;4.32;;;2.30;;
70725;SDS011;58304;53.104;6.022;2022-10-01T04:35:11;3.25;;;2.33;;
70725;SDS011;58304;53.104;6.022;2022-10-01T04:37:36;3.78;;;2.50;;
70725;SDS011;58304;53.104;6.022;2022-10-01T04:40:02;4.55;;;2.30;;
70725;SDS011;58304;53.104;6.022;2022-10-01T04:42:29;4.60;;;2.45;;
70725;SDS011;58304;53.104;6.022;2022-10-01T04:44:55;4.25;;;2.67;;
70725;SDS011;58304;53.104;6.022;2022-10-01T04:47:21;4.57;;;2.70;;
70725;SDS011;58304;53.104;6.022;2022-10-01T04:49:47;3.80;;;2.70;;
70725;SDS011;58304;53.104;6.022;2022-10-01T04:52:12;4.35;;;3.03;;
70725;SDS011;58304;53.104;6.022;2022-10-01T04:54:38;3.95;;;2.67;;
70725;SDS011;58304;53.104;6.022;2022-10-01T04:57:03;4.65;;;3.10;;
70725;SDS011;58304;53.104;6.022;2022-10-01T04:59:29;4.47;;;2.97;;
70725;SDS011;58304;53.104;6.022;2022-10-01T05:01:55;5.03;;;3.08;;
70725;SDS011;58304;53.104;6.022;2022-10-01T05:04:21;4.60;;;3.10;;
70725;SDS011;58304;53.104;6.022;2022-10-01T05:06:47;5.10;;;2.92;;
70725;SDS011;58304;53.104;6.022;2022-10-01T05:09:12;5.95;;;3.30;;
70725;SDS011;58304;53.104;6.022;2022-10-01T05:11:38;5.10;;;3.50;;
70725;SDS011;58304;53.104;6.022;2022-10-01T05:14:04;5.65;;;3.20;;
70725;SDS011;58304;53.104;6.022;2022-10-01T05:16:29;7.63;;;3.20;;
70725;SDS011;58304;53.104;6.022;2022-10-01T05:18:55;5.95;;;3.00;;
70725;SDS011;58304;53.104;6.022;2022-10-01T05:21:21;6.28;;;3.28;;
70725;SDS011;58304;53.104;6.022;2022-10-01T05:23:47;7.40;;;3.40;;
70725;SDS011;58304;53.104;6.022;2022-10-01T05:26:12;6.20;;;3.03;;
70725;SDS011;58304;53.104;6.022;2022-10-01T05:28:38;5.53;;;3.05;;
70725;SDS011;58304;53.104;6.022;2022-10-01T05:31:08;7.75;;;3.92;;
70725;SDS011;58304;53.104;6.022;2022-10-01T05:33:35;10.82;;;4.07;;
70725;SDS011;58304;53.104;6.022;2022-10-01T05:36:02;7.13;;;4.18;;
70725;SDS011;58304;53.104;6.022;2022-10-01T05:38:30;6.60;;;3.65;;
70725;SDS011;58304;53.104;6.022;2022-10-01T05:41:01;8.30;;;3.90;;
70725;SDS011;58304;53.104;6.022;2022-10-01T05:43:27;7.85;;;3.60;;
70725;SDS011;58304;53.104;6.022;2022-10-01T05:45:53;7.57;;;3.75;;
70725;SDS011;58304;53.104;6.022;2022-10-01T05:48:19;6.82;;;3.42;;
70725;SDS011;58304;53.104;6.022;2022-10-01T05:50:44;7.15;;;3.38;;
70725;SDS011;58304;53.104;6.022;2022-10-01T05:53:10;7.53;;;3.55;;
70725;SDS011;58304;53.104;6.022;2022-10-01T05:55:37;7.63;;;3.40;;
70725;SDS011;58304;53.104;6.022;2022-10-01T05:58:04;5.90;;;3.88;;
70725;SDS011;58304;53.104;6.022;2022-10-01T06:00:31;7.90;;;3.53;;
70725;SDS011;58304;53.104;6.022;2022-10-01T06:02:58;6.82;;;3.22;;
70725;SDS011;58304;53.104;6.022;2022-10-01T06:05:25;6.97;;;3.58;;
70725;SDS011;58304;53.104;6.022;2022-10-01T06:07:55;6.40;;;3.38;;
70725;SDS011;58304;53.104;6.022;2022-10-01T06:10:21;8.32;;;3.50;;
70725;SDS011;58304;53.104;6.022;2022-10-01T06:12:47;7.95;;;3.05;;
70725;SDS011;58304;53.104;6.022;2022-10-01T06:15:14;7.10;;;2.92;;
70725;SDS011;58304;53.104;6.022;2022-10-01T06:17:41;10.05;;;3.00;;
70725;SDS011;58304;53.104;6.022;2022-10-01T06:20:11;9.20;;;3.15;;
70725;SDS011;58304;53.104;6.022;2022-10-01T06:22:41;8.25;;;2.95;;
70725;SDS011;58304;53.104;6.022;2022-10-01T06:25:09;10.02;;;2.22;;
70725;SDS011;58304;53.104;6.022;2022-10-01T06:27:35;9.65;;;2.22;;
70725;SDS011;58304;53.104;6.022;2022-10-01T06:30:04;7.68;;;2.38;;
70725;SDS011;58304;53.104;6.022;2022-10-01T06:32:30;11.20;;;2.67;;
70725;SDS011;58304;53.104;6.022;2022-10-01T06:34:56;6.82;;;2.20;;
70725;SDS011;58304;53.104;6.022;2022-10-01T06:37:22;5.18;;;2.55;;
70725;SDS011;58304;53.104;6.022;2022-10-01T06:39:48;9.77;;;2.30;;
70725;SDS011;58304;53.104;6.022;2022-10-01T06:42:14;7.28;;;2.10;;
70725;SDS011;58304;53.104;6.022;2022-10-01T06:44:40;11.70;;;2.10;;
70725;SDS011;58304;53.104;6.022;2022-10-01T06:47:06;7.05;;;1.60;;
70725;SDS011;58304;53.104;6.022;2022-10-01T06:49:32;5.50;;;1.50;;
70725;SDS011;58304;53.104;6.022;2022-10-01T06:52:01;12.35;;;1.48;;
70725;SDS011;58304;53.104;6.022;2022-10-01T06:54:45;6.43;;;1.52;;
70725;SDS011;58304;53.104;6.022;2022-10-01T06:57:11;9.23;;;1.70;;
70725;SDS011;58304;53.104;6.022;2022-10-01T06:59:36;6.43;;;1.52;;
70725;SDS011;58304;53.104;6.022;2022-10-01T07:02:02;8.30;;;1.52;;
70725;SDS011;58304;53.104;6.022;2022-10-01T07:04:28;6.97;;;1.65;;
70725;SDS011;58304;53.104;6.022;2022-10-01T07:06:54;6.30;;;1.50;;
70725;SDS011;58304;53.104;6.022;2022-10-01T07:09:24;7.38;;;1.60;;
70725;SDS011;58304;53.104;6.022;2022-10-01T07:11:50;4.22;;;1.23;;
70725;SDS011;58304;53.104;6.022;2022-10-01T07:14:17;7.90;;;1.50;;
70725;SDS011;58304;53.104;6.022;2022-10-01T07:16:43;8.60;;;1.25;;
70725;SDS011;58304;53.104;6.022;2022-10-01T07:19:09;5.43;;;1.23;;
70725;SDS011;58304;53.104;6.022;2022-10-01T07:21:36;7.13;;;1.50;;
70725;SDS011;58304;53.104;6.022;2022-10-01T07:24:01;7.15;;;1.20;;
70725;SDS011;58304;53.104;6.022;2022-10-01T07:26:27;4.93;;;1.30;;
70725;SDS011;58304;53.104;6.022;2022-10-01T07:28:53;5.93;;;1.20;;
70725;SDS011;58304;53.104;6.022;2022-10-01T07:31:19;5.45;;;0.93;;
70725;SDS011;58304;53.104;6.022;2022-10-01T07:33:45;6.05;;;1.20;;
70725;SDS011;58304;53.104;6.022;2022-10-01T07:36:12;4.50;;;0.95;;
70725;SDS011;58304;53.104;6.022;2022-10-01T07:38:38;3.40;;;0.80;;
70725;SDS011;58304;53.104;6.022;2022-10-01T07:41:03;5.00;;;0.85;;
70725;SDS011;58304;53.104;6.022;2022-10-01T07:43:30;5.28;;;0.80;;
70725;SDS011;58304;53.104;6.022;2022-10-01T07:45:57;3.25;;;1.00;;
70725;SDS011;58304;53.104;6.022;2022-10-01T07:48:24;5.95;;;1.13;;
70725;SDS011;58304;53.104;6.022;2022-10-01T07:50:50;9.07;;;1.52;;
70725;SDS011;58304;53.104;6.022;2022-10-01T07:53:16;5.80;;;1.10;;
70725;SDS011;58304;53.104;6.022;2022-10-01T07:55:42;7.50;;;1.58;;
70725;SDS011;58304;53.104;6.022;2022-10-01T07:58:09;7.00;;;1.25;;
70725;SDS011;58304;53.104;6.022;2022-10-01T08:00:36;6.63;;;1.25;;
70725;SDS011;58304;53.104;6.022;2022-10-01T08:03:02;8.98;;;1.52;;
70725;SDS011;58304;53.104;6.022;2022-10-01T08:05:32;8.15;;;1.63;;
70725;SDS011;58304;53.104;6.022;2022-10-01T08:08:01;4.70;;;1.17;;
70725;SDS011;58304;53.104;6.022;2022-10-01T08:10:31;8.15;;;1.50;;
70725;SDS011;58304;53.104;6.022;2022-10-01T08:13:01;10.15;;;1.90;;
70725;SDS011;58304;53.104;6.022;2022-10-01T08:15:38;10.40;;;1.92;;
70725;SDS011;58304;53.104;6.022;2022-10-01T08:18:05;6.68;;;1.50;;
70725;SDS011;58304;53.104;6.022;2022-10-01T08:20:31;10.63;;;1.38;;
70725;SDS011;58304;53.104;6.022;2022-10-01T08:23:03;7.05;;;1.55;;
70725;SDS011;58304;53.104;6.022;2022-10-01T08:25:31;9.27;;;1.70;;
70725;SDS011;58304;53.104;6.022;2022-10-01T08:27:57;7.60;;;1.60;;
70725;SDS011;58304;53.104;6.022;2022-10-01T08:30:28;14.68;;;2.10;;
70725;SDS011;58304;53.104;6.022;2022-10-01T08:32:55;11.85;;;1.65;;
70725;SDS011;58304;53.104;6.022;2022-10-01T08:35:22;6.85;;;1.67;;
70725;SDS011;58304;53.104;6.022;2022-10-01T08:37:49;5.28;;;1.15;;
70725;SDS011;58304;53.104;6.022;2022-10-01T08:40:15;3.03;;;0.80;;
70725;SDS011;58304;53.104;6.022;2022-10-01T08:42:53;6.00;;;1.30;;
70725;SDS011;58304;53.104;6.022;2022-10-01T08:45:28;7.50;;;1.30;;
70725;SDS011;58304;53.104;6.022;2022-10-01T08:48:00;6.82;;;1.27;;
70725;SDS011;58304;53.104;6.022;2022-10-01T08:53:43;6.63;;;1.10;;
70725;SDS011;58304;53.104;6.022;2022-10-01T08:56:07;5.20;;;1.10;;
70725;SDS011;58304;53.104;6.022;2022-10-01T08:58:46;8.07;;;1.40;;
70725;SDS011;58304;53.104;6.022;2022-10-01T09:01:17;4.22;;;1.10;;
70725;SDS011;58304;53.104;6.022;2022-10-01T09:03:45;6.70;;;1.38;;
70725;SDS011;58304;53.104;6.022;2022-10-01T09:06:24;7.65;;;1.38;;
70725;SDS011;58304;53.104;6.022;2022-10-01T09:09:04;7.93;;;1.20;;
70725;SDS011;58304;53.104;6.022;2022-10-01T09:20:26;5.47;;;1.23;;
70725;SDS011;58304;53.104;6.022;2022-10-01T09:25:32;8.48;;;1.42;;
70725;SDS011;58304;53.104;6.022;2022-10-01T09:28:06;5.03;;;1.25;;
70725;SDS011;58304;53.104;6.022;2022-10-01T09:31:24;8.95;;;1.67;;
70725;SDS011;58304;53.104;6.022;2022-10-01T09:33:50;6.05;;;1.15;;
70725;SDS011;58304;53.104;6.022;2022-10-01T09:39:25;6.28;;;1.17;;
70725;SDS011;58304;53.104;6.022;2022-10-01T09:41:58;7.45;;;1.30;;
70725;SDS011;58304;53.104;6.022;2022-10-01T09:44:25;6.55;;;1.23;;
70725;SDS011;58304;53.104;6.022;2022-10-01T09:46:56;7.68;;;1.20;;
70725;SDS011;58304;53.104;6.022;2022-10-01T09:49:33;4.32;;;0.98;;
70725;SDS011;58304;53.104;6.022;2022-10-01T09:52:26;4.82;;;0.95;;
70725;SDS011;58304;53.104;6.022;2022-10-01T09:57:44;6.95;;;1.10;;
70725;SDS011;58304;53.104;6.022;2022-10-01T10:00:26;4.30;;;1.13;;
70725;SDS011;58304;53.104;6.022;2022-10-01T10:02:52;6.18;;;1.10;;
70725;SDS011;58304;53.104;6.022;2022-10-01T10:05:20;7.50;;;1.25;;
70725;SDS011;58304;53.104;6.022;2022-10-01T10:10:23;6.90;;;1.27;;
70725;SDS011;58304;53.104;6.022;2022-10-01T10:12:54;9.52;;;1.00;;
70725;SDS011;58304;53.104;6.022;2022-10-01T10:15:25;6.07;;;1.00;;
70725;SDS011;58304;53.104;6.022;2022-10-01T10:17:55;6.43;;;1.08;;
70725;SDS011;58304;53.104;6.022;2022-10-01T10:20:40;3.38;;;0.85;;
70725;SDS011;58304;53.104;6.022;2022-10-01T10:23:18;4.38;;;0.93;;
70725;SDS011;58304;53.104;6.022;2022-10-01T10:28:21;6.53;;;1.13;;
70725;SDS011;58304;53.104;6.022;2022-10-01T10:30:54;5.25;;;1.08;;
70725;SDS011;58304;53.104;6.022;2022-10-01T10:33:24;8.75;;;1.10;;
70725;SDS011;58304;53.104;6.022;2022-10-01T10:36:01;8.73;;;1.02;;
70725;SDS011;58304;53.104;6.022;2022-10-01T10:38:30;7.13;;;1.20;;
70725;SDS011;58304;53.104;6.022;2022-10-01T10:40:57;4.38;;;0.82;;
70725;SDS011;58304;53.104;6.022;2022-10-01T10:43:26;8.82;;;1.48;;
70725;SDS011;58304;53.104;6.022;2022-10-01T10:45:54;8.63;;;1.38;;
70725;SDS011;58304;53.104;6.022;2022-10-01T10:48:24;10.93;;;1.65;;
70725;SDS011;58304;53.104;6.022;2022-10-01T10:50:59;14.90;;;1.90;;
70725;SDS011;58304;53.104;6.022;2022-10-01T10:53:28;11.50;;;1.90;;
70725;SDS011;58304;53.104;6.022;2022-10-01T10:56:04;10.50;;;1.83;;
70725;SDS011;58304;53.104;6.022;2022-10-01T10:58:34;9.00;;;1.38;;
70725;SDS011;58304;53.104;6.022;2022-10-01T11:01:06;6.78;;;1.15;;
70725;SDS011;58304;53.104;6.022;2022-10-01T11:03:41;10.60;;;1.33;;
70725;SDS011;58304;53.104;6.022;2022-10-01T11:06:11;11.40;;;1.70;;
70725;SDS011;58304;53.104;6.022;2022-10-01T11:08:45;9.45;;;1.42;;
70725;SDS011;58304;53.104;6.022;2022-10-01T11:20:32;10.10;;;1.42;;
70725;SDS011;58304;53.104;6.022;2022-10-01T11:23:21;9.73;;;1.70;;
70725;SDS011;58304;53.104;6.022;2022-10-01T11:28:46;7.75;;;1.35;;
70725;SDS011;58304;53.104;6.022;2022-10-01T11:31:51;12.25;;;1.65;;
70725;SDS011;58304;53.104;6.022;2022-10-01T11:37:06;11.00;;;1.50;;
70725;SDS011;58304;53.104;6.022;2022-10-01T11:39:45;7.45;;;1.50;;
70725;SDS011;58304;53.104;6.022;2022-10-01T11:42:15;7.75;;;1.45;;
70725;SDS011;58304;53.104;6.022;2022-10-01T11:44:58;7.97;;;1.35;;
70725;SDS011;58304;53.104;6.022;2022-10-01T11:47:37;8.43;;;1.30;;
70725;SDS011;58304;53.104;6.022;2022-10-01T11:50:19;6.82;;;1.40;;
70725;SDS011;58304;53.104;6.022;2022-10-01T11:52:55;10.75;;;1.38;;
70725;SDS011;58304;53.104;6.022;2022-10-01T11:55:31;5.88;;;1.20;;
70725;SDS011;58304;53.104;6.022;2022-10-01T12:06:25;7.80;;;1.65;;
70725;SDS011;58304;53.104;6.022;2022-10-01T12:09:04;7.68;;;1.33;;
70725;SDS011;58304;53.104;6.022;2022-10-01T12:12:06;10.32;;;1.80;;
70725;SDS011;58304;53.104;6.022;2022-10-01T12:14:43;6.47;;;1.13;;
70725;SDS011;58304;53.104;6.022;2022-10-01T12:17:17;8.20;;;1.75;;
70725;SDS011;58304;53.104;6.022;2022-10-01T12:20:18;10.52;;;1.48;;
70725;SDS011;58304;53.104;6.022;2022-10-01T12:23:10;11.35;;;1.50;;
70725;SDS011;58304;53.104;6.022;2022-10-01T12:28:15;8.32;;;1.17;;
70725;SDS011;58304;53.104;6.022;2022-10-01T12:31:07;11.20;;;1.90;;
70725;SDS011;58304;53.104;6.022;2022-10-01T12:33:52;10.48;;;1.60;;
70725;SDS011;58304;53.104;6.022;2022-10-01T12:36:35;10.27;;;1.60;;
70725;SDS011;58304;53.104;6.022;2022-10-01T12:39:27;13.63;;;1.85;;
70725;SDS011;58304;53.104;6.022;2022-10-01T12:45:16;6.00;;;1.05;;
70725;SDS011;58304;53.104;6.022;2022-10-01T12:50:56;5.00;;;0.90;;
70725;SDS011;58304;53.104;6.022;2022-10-01T13:02:45;7.45;;;1.20;;
70725;SDS011;58304;53.104;6.022;2022-10-01T13:08:28;8.32;;;1.65;;
70725;SDS011;58304;53.104;6.022;2022-10-01T13:11:35;13.07;;;1.63;;
70725;SDS011;58304;53.104;6.022;2022-10-01T13:14:28;5.78;;;1.17;;
70725;SDS011;58304;53.104;6.022;2022-10-01T13:19:45;9.10;;;1.67;;
70725;SDS011;58304;53.104;6.022;2022-10-01T13:27:59;12.35;;;1.40;;
70725;SDS011;58304;53.104;6.022;2022-10-01T13:30:57;13.82;;;1.90;;
70725;SDS011;58304;53.104;6.022;2022-10-01T13:33:26;9.35;;;1.52;;
70725;SDS011;58304;53.104;6.022;2022-10-01T13:35:55;10.68;;;1.50;;
70725;SDS011;58304;53.104;6.022;2022-10-01T13:38:26;10.15;;;1.23;;
70725;SDS011;58304;53.104;6.022;2022-10-01T13:41:17;9.77;;;1.50;;
70725;SDS011;58304;53.104;6.022;2022-10-01T13:44:01;5.30;;;1.33;;
70725;SDS011;58304;53.104;6.022;2022-10-01T13:46:50;9.65;;;1.63;;
70725;SDS011;58304;53.104;6.022;2022-10-01T13:49:23;11.30;;;1.53;;
70725;SDS011;58304;53.104;6.022;2022-10-01T13:51:55;8.15;;;1.60;;
70725;SDS011;58304;53.104;6.022;2022-10-01T13:54:23;11.70;;;1.98;;
70725;SDS011;58304;53.104;6.022;2022-10-01T14:02:37;9.45;;;1.52;;
70725;SDS011;58304;53.104;6.022;2022-10-01T14:08:16;9.18;;;1.65;;
70725;SDS011;58304;53.104;6.022;2022-10-01T14:10:56;12.27;;;2.17;;
70725;SDS011;58304;53.104;6.022;2022-10-01T14:14:02;14.32;;;1.73;;
70725;SDS011;58304;53.104;6.022;2022-10-01T14:17:05;6.43;;;1.33;;
70725;SDS011;58304;53.104;6.022;2022-10-01T14:19:33;6.78;;;1.17;;
70725;SDS011;58304;53.104;6.022;2022-10-01T14:22:08;11.38;;;1.92;;
70725;SDS011;58304;53.104;6.022;2022-10-01T14:24:44;9.52;;;1.73;;
70725;SDS011;58304;53.104;6.022;2022-10-01T14:27:32;9.63;;;1.67;;
70725;SDS011;58304;53.104;6.022;2022-10-01T14:37:58;17.20;;;1.73;;
70725;SDS011;58304;53.104;6.022;2022-10-01T14:40:25;9.02;;;1.80;;
70725;SDS011;58304;53.104;6.022;2022-10-01T14:43:23;11.10;;;1.60;;
70725;SDS011;58304;53.104;6.022;2022-10-01T14:46:00;11.25;;;1.45;;
70725;SDS011;58304;53.104;6.022;2022-10-01T14:48:32;14.75;;;1.90;;
70725;SDS011;58304;53.104;6.022;2022-10-01T14:51:00;10.90;;;1.90;;
70725;SDS011;58304;53.104;6.022;2022-10-01T14:53:29;12.77;;;1.65;;
70725;SDS011;58304;53.104;6.022;2022-10-01T14:56:00;8.60;;;1.42;;
70725;SDS011;58304;53.104;6.022;2022-10-01T14:58:39;8.68;;;1.38;;
70725;SDS011;58304;53.104;6.022;2022-10-01T15:01:12;13.00;;;1.50;;
70725;SDS011;58304;53.104;6.022;2022-10-01T15:03:45;9.48;;;1.45;;
70725;SDS011;58304;53.104;6.022;2022-10-01T15:06:16;9.93;;;1.70;;
70725;SDS011;58304;53.104;6.022;2022-10-01T15:08:44;16.90;;;2.17;;
70725;SDS011;58304;53.104;6.022;2022-10-01T15:11:18;14.25;;;1.65;;
70725;SDS011;58304;53.104;6.022;2022-10-01T15:13:50;10.60;;;1.52;;
70725;SDS011;58304;53.104;6.022;2022-10-01T15:16:20;6.68;;;1.27;;
70725;SDS011;58304;53.104;6.022;2022-10-01T15:21:35;8.52;;;1.95;;
70725;SDS011;58304;53.104;6.022;2022-10-01T15:24:04;7.53;;;1.20;;
70725;SDS011;58304;53.104;6.022;2022-10-01T15:26:39;7.18;;;1.20;;
70725;SDS011;58304;53.104;6.022;2022-10-01T15:29:05;9.38;;;1.48;;
70725;SDS011;58304;53.104;6.022;2022-10-01T15:31:37;9.52;;;1.52;;
70725;SDS011;58304;53.104;6.022;2022-10-01T15:34:03;5.45;;;1.02;;
70725;SDS011;58304;53.104;6.022;2022-10-01T15:36:29;11.32;;;1.30;;
70725;SDS011;58304;53.104;6.022;2022-10-01T15:38:56;11.13;;;1.60;;
70725;SDS011;58304;53.104;6.022;2022-10-01T15:41:24;9.07;;;1.33;;
70725;SDS011;58304;53.104;6.022;2022-10-01T15:43:54;10.18;;;1.10;;
70725;SDS011;58304;53.104;6.022;2022-10-01T15:46:30;7.57;;;1.20;;
70725;SDS011;58304;53.104;6.022;2022-10-01T15:51:49;5.93;;;1.48;;
70725;SDS011;58304;53.104;6.022;2022-10-01T15:54:42;9.00;;;1.27;;
70725;SDS011;58304;53.104;6.022;2022-10-01T15:57:30;8.25;;;1.67;;
70725;SDS011;58304;53.104;6.022;2022-10-01T15:59:57;11.93;;;1.60;;
70725;SDS011;58304;53.104;6.022;2022-10-01T16:02:24;17.73;;;1.67;;
70725;SDS011;58304;53.104;6.022;2022-10-01T16:04:53;9.80;;;1.77;;
70725;SDS011;58304;53.104;6.022;2022-10-01T16:07:30;8.15;;;1.45;;
70725;SDS011;58304;53.104;6.022;2022-10-01T16:10:11;9.60;;;1.67;;
70725;SDS011;58304;53.104;6.022;2022-10-01T16:12:51;8.65;;;1.20;;
70725;SDS011;58304;53.104;6.022;2022-10-01T16:15:24;8.05;;;1.30;;
70725;SDS011;58304;53.104;6.022;2022-10-01T16:17:52;11.73;;;1.95;;
70725;SDS011;58304;53.104;6.022;2022-10-01T16:20:34;9.27;;;1.30;;
70725;SDS011;58304;53.104;6.022;2022-10-01T16:26:04;16.77;;;2.03;;
70725;SDS011;58304;53.104;6.022;2022-10-01T16:28:52;8.55;;;1.58;;
70725;SDS011;58304;53.104;6.022;2022-10-01T16:31:22;9.07;;;1.60;;
70725;SDS011;58304;53.104;6.022;2022-10-01T16:33:52;9.18;;;1.80;;
70725;SDS011;58304;53.104;6.022;2022-10-01T16:36:18;7.30;;;1.33;;
70725;SDS011;58304;53.104;6.022;2022-10-01T16:38:46;6.40;;;1.40;;
70725;SDS011;58304;53.104;6.022;2022-10-01T16:41:13;8.07;;;1.27;;
70725;SDS011;58304;53.104;6.022;2022-10-01T16:43:49;7.97;;;1.30;;
70725;SDS011;58304;53.104;6.022;2022-10-01T16:46:16;10.38;;;1.58;;
70725;SDS011;58304;53.104;6.022;2022-10-01T16:48:42;9.10;;;1.60;;
70725;SDS011;58304;53.104;6.022;2022-10-01T16:51:13;8.63;;;1.80;;
70725;SDS011;58304;53.104;6.022;2022-10-01T16:53:38;8.68;;;1.48;;
70725;SDS011;58304;53.104;6.022;2022-10-01T16:56:07;6.72;;;1.45;;
70725;SDS011;58304;53.104;6.022;2022-10-01T16:58:33;9.75;;;1.65;;
70725;SDS011;58304;53.104;6.022;2022-10-01T17:00:58;7.68;;;1.27;;
70725;SDS011;58304;53.104;6.022;2022-10-01T17:03:30;8.98;;;1.20;;
70725;SDS011;58304;53.104;6.022;2022-10-01T17:05:56;8.88;;;1.30;;
70725;SDS011;58304;53.104;6.022;2022-10-01T17:08:21;4.90;;;1.20;;
70725;SDS011;58304;53.104;6.022;2022-10-01T17:10:50;8.70;;;1.38;;
70725;SDS011;58304;53.104;6.022;2022-10-01T17:13:21;6.85;;;1.27;;
70725;SDS011;58304;53.104;6.022;2022-10-01T17:15:47;11.27;;;1.80;;
70725;SDS011;58304;53.104;6.022;2022-10-01T17:18:14;6.35;;;1.30;;
70725;SDS011;58304;53.104;6.022;2022-10-01T17:20:40;5.45;;;1.30;;
70725;SDS011;58304;53.104;6.022;2022-10-01T17:23:09;7.03;;;1.35;;